Terminal Aerodrome Forecast
Issued by NWS

Current Version | Previous Version | Text Only | Print | Product List | Glossary On
Versions: 1 2 3 4 5 6 7 8 9 10 11 12 13
000
FTUS42 TJSJ 021754
TAFKPK
TAF
TKPK 021754Z 0218/0318 08010KT P6SM FEW020
     FM022100 05005KT P6SM SCT018
     FM031300 08010KT P6SM FEW030 FEW050
      AMD NOT SKED 0302/0311=

USA.gov is the U.S. government's official web portal to all federal, state and local government web resources and services.